Time;durP1;ratioP1;P1;durP2;ratioP2;P2;SDS_P1;SDS_P2;PMS_P1;PMS_P2;Temp;Humidity;BMP_temperature;BMP_pressure;BME280_temperature;BME280_humidity;BME280_pressure;Samples;Min_cycle;Max_cycle;Signal;HPM_P1;HPM_P2
2022/04/12 00:01:19;;;;;;;4.40;1.97;;;;;;;17.20;54.99;96287.59;10358562;28;20038;-23
2022/04/12 00:06:19;;;;;;;6.55;1.95;;;;;;;17.41;57.71;96281.69;10328696;28;20093;-23
2022/04/12 00:11:19;;;;;;;2.17;1.47;;;;;;;17.46;55.88;96279.97;10327756;28;20046;-23
2022/04/12 00:16:20;;;;;;;1.40;0.90;;;;;;;17.32;53.28;96266.50;10327578;28;20034;-22
2022/04/12 00:21:20;;;;;;;2.33;1.15;;;;;;;17.22;52.89;96264.81;10327687;28;20281;-22
2022/04/12 00:26:21;;;;;;;1.30;1.10;;;;;;;17.20;52.82;96267.38;10327138;28;20034;-22
2022/04/12 00:31:21;;;;;;;2.38;1.15;;;;;;;17.18;52.83;96264.00;10327433;28;20039;-23
2022/04/12 00:36:22;;;;;;;1.60;0.90;;;;;;;17.19;53.05;96267.38;10326853;28;20472;-23
2022/04/12 00:41:22;;;;;;;1.40;1.10;;;;;;;17.18;52.78;96263.16;10327178;28;20291;-23
2022/04/12 00:46:22;;;;;;;1.10;0.73;;;;;;;17.17;53.04;96271.59;10332846;28;20034;-23
2022/04/12 00:51:23;;;;;;;1.17;0.80;;;;;;;17.17;52.61;96266.53;10334987;28;20401;-23
2022/04/12 00:56:24;;;;;;;1.77;0.90;;;;;;;17.15;52.86;96263.16;10335088;28;20034;-23
2022/04/12 01:01:25;;;;;;;1.13;1.02;;;;;;;17.15;52.97;96260.66;10338633;28;20038;-22
2022/04/12 01:06:25;;;;;;;1.07;0.70;;;;;;;17.17;52.62;96271.59;10373167;28;20579;-22
2022/04/12 01:11:26;;;;;;;2.00;1.53;;;;;;;17.34;58.29;96259.75;10334650;28;20117;-23
2022/04/12 01:16:27;;;;;;;2.90;1.50;;;;;;;17.45;57.59;96261.44;10333945;28;20089;-23
2022/04/12 01:21:35;;;;;;;1.40;0.88;;;;;;;17.39;53.80;96263.13;10334514;28;20026;-22
2022/04/12 01:26:35;;;;;;;1.30;1.00;;;;;;;17.26;52.79;96253.84;10333835;28;20031;-23
2022/04/12 01:31:35;;;;;;;1.23;0.83;;;;;;;17.22;52.79;96255.56;10346145;28;20038;-23
2022/04/12 01:36:36;;;;;;;2.13;1.00;;;;;;;17.17;52.72;96256.41;10370782;28;20504;-23
2022/04/12 01:41:36;;;;;;;1.27;0.93;;;;;;;17.17;52.70;96246.28;10335800;28;20034;-23
2022/04/12 01:46:36;;;;;;;1.93;0.80;;;;;;;17.18;52.88;96250.50;10332834;28;20060;-23
2022/04/12 01:51:37;;;;;;;1.23;0.83;;;;;;;17.16;52.71;96244.63;10340606;28;20030;-22
2022/04/12 01:56:37;;;;;;;1.27;0.90;;;;;;;17.16;52.95;96240.38;10332559;28;20422;-23
2022/04/12 02:01:37;;;;;;;1.60;0.87;;;;;;;17.15;52.80;96242.94;10344690;28;20030;-23
2022/04/12 02:06:38;;;;;;;2.00;1.00;;;;;;;17.15;52.87;96243.75;10368509;28;20124;-22
2022/04/12 02:11:38;;;;;;;1.07;0.80;;;;;;;17.16;52.81;96244.63;10331954;28;20034;-22
2022/04/12 02:16:38;;;;;;;2.43;1.37;;;;;;;17.18;53.95;96251.38;10351785;28;20367;-22
2022/04/12 02:21:39;;;;;;;2.53;1.30;;;;;;;17.39;58.52;96247.94;10368865;28;20293;-23
2022/04/12 02:26:39;;;;;;;2.93;1.87;;;;;;;17.45;58.15;96227.69;10331438;28;20285;-22
2022/04/12 02:31:41;;;;;;;1.52;0.88;;;;;;;17.29;53.32;96223.47;10331033;28;20042;-24
2022/04/12 02:36:43;;;;;;;1.05;0.88;;;;;;;17.23;53.13;96228.59;10330845;28;20465;-22
2022/04/12 02:41:43;;;;;;;1.02;0.70;;;;;;;17.18;52.84;96217.63;10330480;28;20026;-22
2022/04/12 02:46:43;;;;;;;1.13;0.77;;;;;;;17.17;53.37;96221.81;10329835;28;20088;-22
2022/04/12 02:51:45;;;;;;;1.03;0.80;;;;;;;17.15;53.26;96217.66;10330414;28;20034;-22
2022/04/12 02:56:46;;;;;;;1.55;0.88;;;;;;;17.15;53.15;96215.94;10330170;28;20078;-22
2022/04/12 03:01:46;;;;;;;2.33;0.90;;;;;;;17.17;53.19;96219.28;10330393;28;20400;-23
2022/04/12 03:06:46;;;;;;;1.03;0.87;;;;;;;17.15;52.95;96212.59;10329192;28;20034;-23
2022/04/12 03:11:47;;;;;;;2.70;0.90;;;;;;;17.14;52.81;96208.38;10330433;28;20299;-23
2022/04/12 03:16:47;;;;;;;1.07;0.90;;;;;;;17.13;52.97;96199.94;10345383;28;20044;-23
2022/04/12 03:21:47;;;;;;;1.27;0.93;;;;;;;17.12;52.75;96203.31;10365286;28;20440;-23
2022/04/12 03:26:51;;;;;;;1.57;1.27;;;;;;;17.27;57.98;96202.41;10329837;28;20120;-22
2022/04/12 03:31:52;;;;;;;2.20;1.20;;;;;;;17.40;58.84;96202.38;10329018;28;20037;-23
2022/04/12 03:36:52;;;;;;;1.93;0.80;;;;;;;17.40;55.02;96202.38;10328777;28;20031;-24
2022/04/12 03:41:53;;;;;;;1.17;0.60;;;;;;;17.17;53.30;96180.53;10337662;28;20580;-23
2022/04/12 03:46:53;;;;;;;1.83;0.80;;;;;;;17.21;52.89;96192.31;10328749;28;20525;-23
2022/04/12 03:51:53;;;;;;;1.30;0.53;;;;;;;17.18;52.70;96198.25;10334820;28;20026;-23
2022/04/12 03:56:54;;;;;;;1.10;0.80;;;;;;;17.15;52.87;96188.13;10365850;28;20033;-23
2022/04/12 04:01:54;;;;;;;1.25;0.90;;;;;;;17.16;52.40;96186.44;10362716;28;20057;-23
2022/04/12 04:06:55;;;;;;;0.95;0.70;;;;;;;17.26;52.75;96206.63;10327982;28;20041;-23
2022/04/12 04:11:56;;;;;;;0.70;0.60;;;;;;;17.26;52.63;96193.16;10334038;28;20038;-23
2022/04/12 04:16:57;;;;;;;0.90;0.80;;;;;;;17.27;52.77;96192.28;10366559;28;20466;-22
2022/04/12 04:21:57;;;;;;;1.73;0.75;;;;;;;17.29;52.54;96190.59;10363347;28;20050;-23
2022/04/12 04:26:58;;;;;;;2.10;0.87;;;;;;;17.26;52.61;96181.31;10337151;28;20402;-23
2022/04/12 04:31:58;;;;;;;1.27;0.70;;;;;;;17.30;52.37;96184.69;10327290;28;20100;-23
2022/04/12 04:36:58;;;;;;;3.00;1.27;;;;;;;17.37;58.26;96178.78;10350079;28;20045;-22
2022/04/12 04:41:59;;;;;;;1.20;0.80;;;;;;;17.46;54.29;96187.19;10327285;28;20451;-23
2022/04/12 04:46:59;;;;;;;8.50;2.05;;;;;;;17.27;50.32;96172.06;10326445;28;20042;-22
2022/04/12 04:52:00;;;;;;;1.17;0.70;;;;;;;17.34;51.70;96171.19;10326542;28;20037;-23
2022/04/12 04:57:00;;;;;;;1.80;0.97;;;;;;;17.29;51.71;96165.28;10326136;28;20296;-22
2022/04/12 05:02:00;;;;;;;1.17;0.80;;;;;;;17.29;52.19;96175.41;10324113;28;20405;-23
2022/04/12 05:07:01;;;;;;;0.80;0.70;;;;;;;17.29;52.10;96170.34;10326273;28;20493;-23
2022/04/12 05:12:01;;;;;;;1.20;0.87;;;;;;;17.30;52.53;96166.97;10326585;28;20052;-23
2022/04/12 05:17:01;;;;;;;2.30;1.00;;;;;;;17.31;52.41;96164.44;10326203;28;20787;-22
2022/04/12 05:22:02;;;;;;;1.70;0.80;;;;;;;17.31;52.35;96164.44;10325815;28;20342;-23
2022/04/12 05:27:03;;;;;;;1.10;0.80;;;;;;;17.30;52.22;96161.91;10326573;28;20050;-22
2022/04/12 05:32:04;;;;;;;2.40;0.80;;;;;;;17.20;51.69;96165.34;10334351;28;20122;-23
2022/04/12 05:37:04;;;;;;;1.40;0.80;;;;;;;17.26;52.22;96170.38;10331086;28;20034;-22
2022/04/12 05:42:05;;;;;;;5.60;1.50;;;;;;;17.37;55.54;96166.13;10333747;28;20034;-22
2022/04/12 05:47:09;;;;;;;5.72;1.73;;;;;;;17.46;56.44;96158.50;10358711;28;20200;-22
2022/04/12 05:52:09;;;;;;;1.58;0.95;;;;;;;17.44;53.41;96162.72;10365556;28;20066;-23
2022/04/12 05:57:10;;;;;;;1.52;0.65;;;;;;;17.38;52.47;96160.22;10333010;28;20042;-22
2022/04/12 06:02:10;;;;;;;1.33;0.73;;;;;;;17.34;52.39;96169.47;10332353;28;20038;-23
2022/04/12 06:07:11;;;;;;;1.40;0.80;;;;;;;17.31;52.34;96168.69;10332302;28;20301;-22
2022/04/12 06:12:11;;;;;;;2.03;0.77;;;;;;;17.29;52.36;96175.41;10332122;28;20382;-23
2022/04/12 06:17:11;;;;;;;1.40;0.80;;;;;;;17.20;52.54;96175.44;10332073;28;20100;-22
2022/04/12 06:22:12;;;;;;;1.47;0.80;;;;;;;17.28;52.31;96193.97;10331812;28;20501;-22
2022/04/12 06:27:12;;;;;;;1.73;0.80;;;;;;;17.26;52.38;96195.69;10331792;28;20030;-22
2022/04/12 06:32:12;;;;;;;0.90;0.70;;;;;;;17.25;52.51;96194.00;10354766;28;20044;-24
2022/04/12 06:37:13;;;;;;;1.10;0.73;;;;;;;17.24;52.56;96210.84;10363138;28;20073;-23
2022/04/12 06:42:13;;;;;;;0.80;0.60;;;;;;;17.24;52.71;96222.69;10330401;28;20041;-23
2022/04/12 06:47:16;;;;;;;1.60;0.97;;;;;;;17.26;54.44;96211.69;10331278;28;20034;-23
2022/04/12 06:52:18;;;;;;;3.03;1.67;;;;;;;17.40;57.54;96209.16;10338325;28;20120;-22
2022/04/12 06:57:18;;;;;;;1.83;0.85;;;;;;;17.49;56.91;96214.19;10371156;28;20076;-23
2022/04/12 07:02:19;;;;;;;3.27;0.70;;;;;;;17.35;53.01;96216.72;10354996;28;20382;-23
2022/04/12 07:07:19;;;;;;;1.63;0.80;;;;;;;17.28;52.76;96210.00;10338405;28;20447;-23
2022/04/12 07:12:20;;;;;;;2.60;0.80;;;;;;;17.24;52.72;96215.91;10370606;28;20044;-22
2022/04/12 07:17:20;;;;;;;0.87;0.60;;;;;;;17.23;52.71;96215.94;10356025;28;20034;-23
2022/04/12 07:22:21;;;;;;;2.70;0.68;;;;;;;17.21;52.68;96207.47;10338095;28;20125;-23
2022/04/12 07:27:21;;;;;;;1.25;0.65;;;;;;;17.20;52.35;96206.66;10369827;28;20030;-22
2022/04/12 07:32:22;;;;;;;1.20;0.90;;;;;;;17.20;52.45;96213.41;10351186;28;20497;-22
2022/04/12 07:37:22;;;;;;;0.57;0.57;;;;;;;17.19;52.68;96210.03;10329351;28;20037;-24
2022/04/12 07:42:23;;;;;;;1.00;0.63;;;;;;;17.18;52.55;96202.44;10329875;28;20037;-22
2022/04/12 07:47:24;;;;;;;1.25;0.73;;;;;;;17.18;52.61;96207.50;10328549;28;20124;-23
2022/04/12 07:52:24;;;;;;;1.25;0.98;;;;;;;17.17;52.72;96211.72;10336482;28;20040;-22
2022/04/12 07:57:27;;;;;;;1.50;1.00;;;;;;;17.34;56.77;96214.19;10369417;28;20033;-23
2022/04/12 08:02:27;;;;;;;4.00;1.20;;;;;;;17.47;56.84;96213.31;10343087;28;20093;-23
2022/04/12 08:07:27;;;;;;;1.83;1.00;;;;;;;17.42;54.00;96215.03;10328220;28;20058;-23
2022/04/12 08:12:28;;;;;;;1.53;1.00;;;;;;;17.27;52.89;96207.47;10327923;28;20042;-23
2022/04/12 08:17:28;;;;;;;1.33;0.73;;;;;;;17.22;52.65;96207.50;10327727;28;20034;-23
2022/04/12 08:22:28;;;;;;;1.37;0.73;;;;;;;17.19;52.92;96209.19;10327934;28;20026;-22
2022/04/12 08:27:29;;;;;;;0.70;0.70;;;;;;;17.17;52.80;96206.66;10327707;28;20489;-22
2022/04/12 08:32:29;;;;;;;1.33;0.60;;;;;;;17.17;52.88;96215.94;10327423;28;20301;-21
2022/04/12 08:37:30;;;;;;;1.38;0.80;;;;;;;17.14;52.74;96201.63;10327331;28;20125;-22
2022/04/12 08:42:31;;;;;;;1.35;0.70;;;;;;;17.13;52.75;96194.88;10327222;28;20077;-22
2022/04/12 08:47:34;;;;;;;1.08;0.85;;;;;;;17.10;53.04;96188.97;10332164;28;20040;-23
2022/04/12 08:52:38;;;;;;;0.80;0.50;;;;;;;17.12;52.73;96179.69;10327260;28;20046;-23
2022/04/12 08:57:39;;;;;;;1.08;0.73;;;;;;;17.12;53.08;96187.28;10327734;28;20485;-22
2022/04/12 09:02:40;;;;;;;1.67;1.10;;;;;;;17.16;53.80;96184.75;10326510;28;20038;-22
2022/04/12 09:07:47;;;;;;;1.50;1.00;;;;;;;17.38;57.00;96190.59;10333441;28;20038;-22
2022/04/12 09:12:48;;;;;;;1.38;1.00;;;;;;;17.46;55.25;96197.31;10334485;28;20042;-23
2022/04/12 09:17:48;;;;;;;1.83;0.70;;;;;;;17.33;52.85;96194.81;10352181;28;20034;-23
2022/04/12 09:22:50;;;;;;;0.70;0.65;;;;;;;17.21;52.81;96199.91;10362004;28;20449;-22
2022/04/12 09:27:51;;;;;;;1.02;0.65;;;;;;;17.17;52.93;96205.81;10333836;28;20034;-24
2022/04/12 09:32:51;;;;;;;1.48;0.68;;;;;;;17.14;52.98;96211.72;10333894;28;20039;-22
2022/04/12 09:37:52;;;;;;;1.05;0.85;;;;;;;17.12;52.72;96207.50;10333724;28;20595;-23
2022/04/12 09:42:57;;;;;;;1.70;0.63;;;;;;;17.10;53.17;96209.22;10333098;28;20054;-21
2022/04/12 09:48:03;;;;;;;0.52;0.52;;;;;;;17.10;53.00;96209.22;10363199;28;20041;-23
2022/04/12 09:53:06;;;;;;;1.10;0.80;;;;;;;17.09;52.85;96202.47;10358512;28;20098;-22
2022/04/12 09:58:11;;;;;;;0.98;0.70;;;;;;;17.07;52.88;96201.66;10332734;28;20416;-22
2022/04/12 10:03:14;;;;;;;1.15;0.68;;;;;;;17.07;52.88;96194.06;10332067;28;20069;-22
2022/04/12 10:08:17;;;;;;;0.80;0.52;;;;;;;17.05;53.30;96186.47;10332561;28;20038;-24
2022/04/12 10:13:18;;;;;;;1.73;0.70;;;;;;;17.27;55.61;96197.34;10332237;28;20038;-23
2022/04/12 10:18:20;;;;;;;2.47;0.80;;;;;;;17.41;56.04;96191.41;10363524;28;20038;-23
2022/04/12 10:23:23;;;;;;;0.80;0.70;;;;;;;17.32;53.08;96183.84;10355267;28;20192;-22
2022/04/12 10:28:26;;;;;;;0.93;0.47;;;;;;;17.25;52.64;96179.63;10331818;28;20035;-23
2022/04/12 10:33:27;;;;;;;4.40;1.40;;;;;;;17.25;53.01;96178.81;10337190;28;20103;-23
2022/04/12 10:38:41;;;;;;;2.17;0.73;;;;;;;17.26;52.82;96173.72;10353584;28;20034;-22
2022/04/12 10:43:42;;;;;;;0.88;0.60;;;;;;;17.25;52.92;96171.22;10328583;28;20061;-23
2022/04/12 10:48:42;;;;;;;1.48;1.00;;;;;;;17.22;52.83;96168.69;10329997;28;20040;-23
2022/04/12 10:53:43;;;;;;;1.30;0.80;;;;;;;17.21;52.69;96151.84;10330359;28;20086;-25
2022/04/12 10:58:44;;;;;;;1.05;0.60;;;;;;;17.21;52.73;96154.38;10330809;28;20332;-23
2022/04/12 11:03:45;;;;;;;1.77;0.70;;;;;;;17.16;52.61;96138.38;10330091;28;20707;-23
2022/04/12 11:08:50;;;;;;;4.00;0.50;;;;;;;17.20;52.81;96137.50;10329641;28;20072;-23
2022/04/12 11:13:51;;;;;;;0.80;0.45;;;;;;;17.19;52.79;96141.75;10329563;28;20504;-24
2022/04/12 11:18:52;;;;;;;7.55;1.92;;;;;;;17.33;55.75;96136.63;10329559;28;20032;-22
2022/04/12 11:24:06;;;;;;;5.93;1.60;;;;;;;17.50;55.76;96129.81;10329880;28;20093;-23
2022/04/12 11:29:20;;;;;;;3.00;1.10;;;;;;;17.46;53.74;96133.19;10328474;28;20039;-23
2022/04/12 11:34:23;;;;;;;2.47;0.60;;;;;;;17.32;52.86;96129.88;10329704;28;20513;-23
2022/04/12 11:39:25;;;;;;;1.40;0.50;;;;;;;17.25;52.64;96123.16;10328955;28;20065;-22
2022/04/12 11:44:26;;;;;;;0.88;0.60;;;;;;;17.21;52.91;96121.47;10328703;28;20053;-22
2022/04/12 11:49:28;;;;;;;1.00;0.50;;;;;;;17.21;52.99;96139.19;10328180;28;20129;-23
2022/04/12 11:54:37;;;;;;;1.55;0.80;;;;;;;17.17;52.79;96138.34;10328394;28;20485;-22
2022/04/12 11:59:44;;;;;;;0.80;0.40;;;;;;;17.16;52.93;96128.28;10328683;28;20034;-22
2022/04/12 12:04:49;;;;;;;2.72;0.70;;;;;;;17.12;53.12;96119.84;10327897;28;20092;-22
2022/04/12 12:09:53;;;;;;;1.25;0.60;;;;;;;17.14;52.98;96120.69;10328004;28;20034;-23
2022/04/12 12:14:54;;;;;;;1.60;0.65;;;;;;;17.12;53.26;96116.47;10326614;28;20088;-22
2022/04/12 12:19:54;;;;;;;0.63;0.63;;;;;;;17.12;52.92;96114.78;10327198;28;20104;-23
2022/04/12 12:24:56;;;;;;;5.07;1.38;;;;;;;17.16;54.90;96118.16;10326719;28;20138;-23
2022/04/12 12:30:14;;;;;;;2.10;0.90;;;;;;;17.40;55.97;96113.81;10327504;28;20043;-22
2022/04/12 12:35:15;;;;;;;1.00;0.68;;;;;;;17.50;54.45;96104.50;10326627;28;20027;-22
2022/04/12 12:40:20;;;;;;;2.80;0.80;;;;;;;17.37;53.34;96107.94;10329447;28;20401;-22
2022/04/12 12:45:22;;;;;;;0.98;0.75;;;;;;;17.22;53.05;96102.94;10335191;28;20057;-22
2022/04/12 12:50:25;;;;;;;0.90;0.50;;;;;;;17.09;53.17;96086.16;10360588;28;20125;-22
2022/04/12 12:55:28;;;;;;;1.35;0.68;;;;;;;17.12;53.38;96099.63;10367925;28;20492;-23
2022/04/12 13:00:29;;;;;;;1.75;0.50;;;;;;;17.09;53.67;96097.09;10367483;28;20070;-24
2022/04/12 13:05:31;;;;;;;0.52;0.50;;;;;;;17.07;53.59;96090.38;10334648;28;20066;-21
2022/04/12 13:10:35;;;;;;;0.85;0.73;;;;;;;17.08;53.49;96092.88;10364970;28;20037;-22
2022/04/12 13:15:35;;;;;;;2.28;1.13;;;;;;;17.06;53.49;96092.06;10334871;28;20038;-23
2022/04/12 13:20:36;;;;;;;2.33;0.70;;;;;;;17.09;53.71;96092.03;10334373;28;20481;-23
2022/04/12 13:25:36;;;;;;;6.20;0.80;;;;;;;17.07;53.86;96087.84;10368006;28;20384;-23
2022/04/12 13:30:36;;;;;;;4.33;0.80;;;;;;;17.07;53.61;96083.63;10371756;28;20919;-23
2022/04/12 13:35:37;;;;;;;4.27;1.20;;;;;;;17.30;55.39;96086.00;10358925;28;20069;-23
2022/04/12 13:40:37;;;;;;;12.97;1.53;;;;;;;17.39;55.70;96070.81;10338766;28;20420;-22
2022/04/12 13:45:40;;;;;;;2.85;0.57;;;;;;;17.44;54.05;96079.22;10333401;28;20453;-24
2022/04/12 13:50:41;;;;;;;7.03;0.70;;;;;;;17.35;53.78;96079.25;10362406;28;20524;-21
2022/04/12 13:55:41;;;;;;;3.97;1.33;;;;;;;17.24;53.47;96076.78;10337016;28;20038;-23
2022/04/12 14:00:42;;;;;;;4.10;0.90;;;;;;;17.18;53.51;96078.50;10332389;28;20512;-23
2022/04/12 14:05:42;;;;;;;3.50;0.80;;;;;;;17.19;53.52;96065.88;10332450;28;20515;-23
2022/04/12 14:10:44;;;;;;;0.50;0.40;;;;;;;17.17;53.31;96071.78;10333494;28;20034;-22
2022/04/12 14:15:45;;;;;;;1.65;0.73;;;;;;;17.17;53.42;96064.19;10333983;28;20061;-23
2022/04/12 14:20:46;;;;;;;1.15;0.60;;;;;;;17.17;53.77;96070.06;10334361;28;20503;-23
2022/04/12 14:25:46;;;;;;;1.08;0.63;;;;;;;17.18;53.39;96065.88;10332964;28;20034;-23
2022/04/12 14:30:47;;;;;;;1.17;0.50;;;;;;;17.17;53.39;96069.25;10334509;28;20117;-22
2022/04/12 14:35:47;;;;;;;0.53;0.47;;;;;;;17.16;53.44;96065.84;10333771;28;20034;-23
2022/04/12 14:40:49;;;;;;;1.08;0.60;;;;;;;17.17;53.59;96061.66;10332894;28;20493;-22
2022/04/12 14:45:50;;;;;;;2.33;1.05;;;;;;;17.42;56.41;96065.75;10347821;28;20038;-23
2022/04/12 14:50:55;;;;;;;1.70;0.50;;;;;;;17.52;54.35;96059.78;10356938;28;20107;-22
2022/04/12 14:55:55;;;;;;;12.30;2.05;;;;;;;17.57;57.89;96058.06;10354088;28;20045;-22
2022/04/12 15:00:56;;;;;;;8.03;1.40;;;;;;;17.65;58.58;96053.78;10349902;28;20129;-27
2022/04/12 15:05:57;;;;;;;3.58;0.98;;;;;;;17.45;55.46;96048.88;10346044;28;20037;-23
2022/04/12 15:10:57;;;;;;;10.63;0.98;;;;;;;17.18;57.60;96030.44;10351265;28;20124;-23
2022/04/12 15:15:58;;;;;;;2.83;0.82;;;;;;;16.79;55.47;96055.94;10357431;28;20488;-23
2022/04/12 15:20:58;;;;;;;2.70;1.00;;;;;;;17.00;56.66;96060.91;10344538;28;20030;-22
2022/04/12 15:25:58;;;;;;;2.30;1.23;;;;;;;17.36;57.58;96065.78;10351747;28;20814;-22
2022/04/12 15:31:02;;;;;;;5.57;1.53;;;;;;;17.59;57.64;96063.94;10356751;28;20469;-23
2022/04/12 15:36:03;;;;;;;2.47;1.48;;;;;;;17.57;57.72;96065.66;10361274;28;20042;-22
2022/04/12 15:41:04;;;;;;;5.47;2.13;;;;;;;17.55;57.60;96063.13;10354196;28;20112;-23
2022/04/12 15:46:04;;;;;;;3.10;1.20;;;;;;;17.28;54.92;96072.53;10351933;28;20035;-22
2022/04/12 15:51:04;;;;;;;5.78;1.60;;;;;;;17.36;56.83;96086.03;10362299;28;20116;-23
2022/04/12 15:56:07;;;;;;;4.95;1.65;;;;;;;17.38;56.75;96074.19;10358741;28;20045;-22
2022/04/12 16:01:08;;;;;;;4.93;2.20;;;;;;;17.52;56.46;96080.88;10362559;28;20105;-23
2022/04/12 16:06:08;;;;;;;5.47;1.40;;;;;;;17.34;54.91;96078.41;10364059;28;20115;-22
2022/04/12 16:11:09;;;;;;;14.55;1.52;;;;;;;17.21;56.28;96081.00;10354816;28;20291;-22
2022/04/12 16:16:09;;;;;;;9.80;2.85;;;;;;;17.59;56.82;96081.66;10359886;28;20029;-22
2022/04/12 16:21:12;;;;;;;14.75;3.60;;;;;;;17.66;56.39;96080.78;10359306;28;20030;-22
2022/04/12 16:26:12;;;;;;;6.72;3.38;;;;;;;17.76;55.91;96087.44;10366042;28;20037;-22
2022/04/12 16:31:13;;;;;;;6.03;3.17;;;;;;;17.44;56.05;96071.63;10358180;28;20033;-23
2022/04/12 16:36:13;;;;;;;10.20;2.50;;;;;;;17.37;56.08;96092.75;10364150;28;20277;-22
2022/04/12 16:41:13;;;;;;;2.00;1.57;;;;;;;17.05;54.63;96094.56;10364188;28;20044;-22
2022/04/12 16:46:14;;;;;;;5.20;1.87;;;;;;;17.07;54.98;96097.97;10361877;28;20492;-23
2022/04/12 16:51:14;;;;;;;9.43;2.50;;;;;;;17.15;55.66;96101.31;10359682;28;20293;-24
2022/04/12 16:56:15;;;;;;;5.60;2.43;;;;;;;17.23;55.13;96104.63;10359853;28;20048;-22
2022/04/12 17:01:15;;;;;;;3.38;1.05;;;;;;;17.26;54.75;96095.31;10355153;28;20293;-22
2022/04/12 17:06:15;;;;;;;6.57;2.05;;;;;;;17.34;54.39;96110.47;10366332;28;20037;-23
2022/04/12 17:11:16;;;;;;;2.95;1.67;;;;;;;17.16;54.53;96111.38;10364378;28;20038;-24
2022/04/12 17:16:16;;;;;;;8.13;2.23;;;;;;;17.18;54.83;96113.91;10359419;28;20038;-23
2022/04/12 17:21:17;;;;;;;3.00;1.70;;;;;;;17.15;54.54;96124.06;10362647;28;20037;-23
2022/04/12 17:26:18;;;;;;;5.13;2.00;;;;;;;17.10;54.57;96129.13;10364775;28;20033;-23
2022/04/12 17:31:19;;;;;;;3.78;1.42;;;;;;;17.08;54.22;96124.94;10371238;28;20799;-23
2022/04/12 17:36:20;;;;;;;2.88;1.85;;;;;;;17.00;54.40;96126.66;10370859;28;20044;-23
2022/04/12 17:41:20;;;;;;;4.77;1.73;;;;;;;17.08;54.61;96138.41;10372828;28;20029;-23
2022/04/12 17:46:21;;;;;;;5.72;1.85;;;;;;;17.12;54.22;96146.81;10369371;28;20037;-22
2022/04/12 17:51:22;;;;;;;2.10;1.20;;;;;;;17.13;53.97;96149.34;10367332;28;20030;-23
2022/04/12 17:56:23;;;;;;;2.28;1.35;;;;;;;17.10;53.95;96153.56;10366873;28;20382;-22
2022/04/12 18:01:23;;;;;;;3.63;1.80;;;;;;;17.08;54.02;96152.75;10367968;28;20092;-23
2022/04/12 18:06:24;;;;;;;4.90;1.67;;;;;;;17.25;56.27;96158.59;10365357;28;20500;-22
2022/04/12 18:11:24;;;;;;;5.70;2.17;;;;;;;17.41;57.71;96160.22;10367510;28;20534;-22
2022/04/12 18:16:24;;;;;;;4.87;1.63;;;;;;;17.40;53.80;96158.56;10361701;28;20033;-23
2022/04/12 18:21:25;;;;;;;3.53;1.37;;;;;;;17.19;54.03;96156.06;10365860;28;20412;-22
2022/04/12 18:26:25;;;;;;;2.60;1.40;;;;;;;17.16;54.03;96179.69;10368034;28;20038;-23
2022/04/12 18:31:25;;;;;;;7.13;1.80;;;;;;;17.13;53.91;96179.69;10366583;28;20038;-23
2022/04/12 18:36:26;;;;;;;1.40;1.10;;;;;;;17.14;53.92;96180.56;10355827;28;20084;-23
2022/04/12 18:41:27;;;;;;;2.58;1.65;;;;;;;17.11;54.11;96191.53;10366284;28;20314;-25
2022/04/12 18:46:28;;;;;;;2.35;1.38;;;;;;;17.08;54.12;96209.22;10364435;28;20049;-22
2022/04/12 18:51:28;;;;;;;2.20;1.20;;;;;;;16.97;54.11;96205.03;10365413;28;20030;-22
2022/04/12 18:56:30;;;;;;;5.03;1.38;;;;;;;17.05;54.32;96221.03;10366593;28;20030;-22
2022/04/12 19:01:36;;;;;;;2.97;1.35;;;;;;;17.04;54.15;96229.44;10364408;28;20063;-22
2022/04/12 19:06:36;;;;;;;3.60;1.75;;;;;;;16.94;54.29;96223.59;10363499;28;20471;-23
2022/04/12 19:11:37;;;;;;;2.57;1.33;;;;;;;17.02;54.26;96236.22;10364116;28;20088;-23
2022/04/12 19:16:37;;;;;;;2.73;1.53;;;;;;;17.27;55.61;96238.69;10364763;28;20052;-23
2022/04/12 19:21:38;;;;;;;4.27;1.63;;;;;;;17.41;57.33;96247.09;10357773;28;20288;-23
2022/04/12 19:26:38;;;;;;;1.48;1.17;;;;;;;17.32;54.32;96257.22;10359103;28;20291;-23
2022/04/12 19:31:39;;;;;;;2.08;1.50;;;;;;;17.20;53.80;96253.88;10361641;28;20037;-22
2022/04/12 19:36:40;;;;;;;2.13;1.65;;;;;;;17.11;53.90;96254.75;10360280;28;20460;-23
2022/04/12 19:41:40;;;;;;;2.20;1.67;;;;;;;17.06;54.00;96248.00;10363076;28;20030;-23
2022/04/12 19:46:41;;;;;;;3.53;0.90;;;;;;;17.05;53.90;96256.41;10361665;28;20377;-23
2022/04/12 19:51:41;;;;;;;2.13;1.20;;;;;;;17.06;53.99;96258.13;10360995;28;20030;-23
2022/04/12 19:56:42;;;;;;;3.13;1.42;;;;;;;17.02;53.84;96262.34;10356996;28;20300;-22
2022/04/12 20:01:42;;;;;;;2.40;1.42;;;;;;;17.03;53.90;96260.66;10358740;28;20037;-23
2022/04/12 20:06:43;;;;;;;1.50;1.15;;;;;;;17.00;54.21;96261.50;10351878;28;20034;-22
2022/04/12 20:11:44;;;;;;;1.77;1.30;;;;;;;17.00;53.86;96258.13;10359448;28;20038;-22
2022/04/12 20:16:46;;;;;;;1.70;1.20;;;;;;;17.01;53.94;96254.75;10355111;28;20412;-23
2022/04/12 20:21:47;;;;;;;2.25;1.30;;;;;;;17.06;54.77;96250.56;10344108;28;20477;-23
2022/04/12 20:26:48;;;;;;;2.38;1.30;;;;;;;17.31;56.85;96250.47;10359885;28;20057;-23
2022/04/12 20:31:48;;;;;;;2.17;1.20;;;;;;;17.41;55.59;96246.25;10360478;28;20568;-22
2022/04/12 20:36:49;;;;;;;1.90;1.30;;;;;;;17.26;54.29;96231.91;10361999;28;20042;-23
2022/04/12 20:41:49;;;;;;;3.10;1.08;;;;;;;17.18;53.96;96227.75;10364984;28;20030;-23
2022/04/12 20:46:50;;;;;;;2.10;1.20;;;;;;;17.11;53.72;96236.19;10362768;28;20040;-22
2022/04/12 20:51:50;;;;;;;3.30;1.73;;;;;;;17.08;54.04;96231.16;10362281;28;20027;-22
2022/04/12 20:56:51;;;;;;;2.05;1.15;;;;;;;17.04;54.09;96231.97;10363351;28;20033;-23
2022/04/12 21:01:51;;;;;;;2.08;1.27;;;;;;;17.04;54.03;96234.50;10367168;28;20060;-23
2022/04/12 21:06:52;;;;;;;1.40;0.97;;;;;;;16.95;53.84;96226.94;10364985;28;20036;-23
2022/04/12 21:11:53;;;;;;;1.85;1.08;;;;;;;17.03;54.01;96242.94;10371936;28;20116;-23
2022/04/12 21:16:53;;;;;;;2.77;1.30;;;;;;;17.04;54.03;96247.16;10368429;28;20026;-22
2022/04/12 21:21:53;;;;;;;1.83;1.10;;;;;;;17.01;54.02;96248.03;10370806;28;20963;-22
2022/04/12 21:26:54;;;;;;;2.38;0.93;;;;;;;17.04;54.13;96254.75;10371602;28;20038;-23
2022/04/12 21:31:54;;;;;;;2.27;2.03;;;;;;;17.11;56.54;96248.84;10368588;28;20141;-23
2022/04/12 21:36:55;;;;;;;1.70;1.00;;;;;;;17.32;55.48;96249.63;10369196;28;20299;-22
2022/04/12 21:41:55;;;;;;;1.47;0.87;;;;;;;17.38;54.76;96252.16;10371573;28;20496;-22
2022/04/12 21:46:55;;;;;;;1.80;1.03;;;;;;;17.24;53.77;96247.97;10365573;28;20025;-22
2022/04/12 21:51:56;;;;;;;2.77;0.90;;;;;;;17.11;53.68;96253.88;10369864;28;20048;-22
2022/04/12 21:56:56;;;;;;;1.80;1.02;;;;;;;17.06;53.67;96264.00;10370608;28;20076;-22
2022/04/12 22:01:57;;;;;;;1.13;0.73;;;;;;;17.06;54.11;96270.78;10363637;28;20036;-22
2022/04/12 22:06:58;;;;;;;2.17;1.10;;;;;;;17.04;53.70;96269.91;10368023;28;20285;-23
2022/04/12 22:11:58;;;;;;;1.15;0.70;;;;;;;16.96;53.84;96261.50;10370562;28;20061;-23
2022/04/12 22:16:59;;;;;;;1.73;1.47;;;;;;;17.02;53.82;96276.66;10367440;28;20512;-23
2022/04/12 22:21:59;;;;;;;1.50;1.30;;;;;;;17.01;54.34;96275.84;10368104;28;20065;-22
2022/04/12 22:27:00;;;;;;;1.07;0.97;;;;;;;17.01;54.20;96280.91;10369785;28;20281;-22
2022/04/12 22:32:00;;;;;;;1.27;0.95;;;;;;;17.01;53.96;96280.03;10366774;28;20025;-22
2022/04/12 22:37:00;;;;;;;1.20;0.90;;;;;;;17.00;53.79;96283.41;10367924;28;20037;-22
2022/04/12 22:42:03;;;;;;;1.97;0.93;;;;;;;17.18;55.87;96288.44;10369106;28;20036;-23
2022/04/12 22:47:03;;;;;;;1.30;1.20;;;;;;;17.35;55.41;96291.78;10367519;28;20087;-23
2022/04/12 22:52:04;;;;;;;1.48;0.95;;;;;;;17.34;54.06;96295.16;10367414;28;20030;-21
2022/04/12 22:57:04;;;;;;;1.42;1.10;;;;;;;17.19;53.58;96297.72;10368658;28;20049;-23
2022/04/12 23:02:05;;;;;;;1.40;0.90;;;;;;;17.09;53.96;96303.63;10363914;28;20033;-23
2022/04/12 23:07:05;;;;;;;1.30;1.10;;;;;;;17.05;53.79;96299.41;10365978;28;20642;-23
2022/04/12 23:12:07;;;;;;;1.30;0.93;;;;;;;17.04;53.84;96313.75;10367828;28;20045;-23
2022/04/12 23:17:07;;;;;;;0.73;0.70;;;;;;;17.03;53.92;96319.66;10363313;28;20686;-22